createdAt,value
2017-01-01T00:00:24.881Z,1017.75
2017-01-01T00:01:24.899Z,1017.69
2017-01-01T00:02:24.916Z,1017.68
2017-01-01T00:03:24.933Z,1017.7
2017-01-01T00:04:24.950Z,1017.7
2017-01-01T00:06:24.984Z,1017.71
2017-01-01T00:07:25.000Z,1017.65
2017-01-01T00:08:25.017Z,1017.69
2017-01-01T00:09:25.034Z,1017.68
2017-01-01T00:10:25.052Z,1017.67
2017-01-01T00:11:25.068Z,1017.69
2017-01-01T00:12:25.085Z,1017.68
2017-01-01T00:13:25.102Z,1017.63
2017-01-01T00:14:25.118Z,1017.61
2017-01-01T00:15:25.135Z,1017.63
2017-01-01T00:16:25.152Z,1017.67
2017-01-01T00:17:25.169Z,1017.65
2017-01-01T00:18:25.185Z,1017.65
2017-01-01T00:19:25.202Z,1017.64
2017-01-01T00:20:25.219Z,1017.59
2017-01-01T00:21:25.237Z,1017.61
2017-01-01T00:22:25.253Z,1017.6
2017-01-01T00:23:25.270Z,1017.6
2017-01-01T00:24:25.288Z,1017.57
2017-01-01T00:25:25.303Z,1017.61
2017-01-01T00:26:25.320Z,1017.56
2017-01-01T00:27:25.337Z,1017.53
2017-01-01T00:28:25.354Z,1017.54
2017-01-01T00:29:25.371Z,1017.5
2017-01-01T00:30:25.388Z,1017.51
2017-01-01T00:31:25.405Z,1017.46
2017-01-01T00:32:25.422Z,1017.48
2017-01-01T00:33:25.438Z,1017.43
2017-01-01T00:34:25.455Z,1017.39
2017-01-01T00:35:25.472Z,1017.39
2017-01-01T00:36:25.488Z,1017.4
2017-01-01T00:38:25.523Z,1017.41
2017-01-01T00:39:25.540Z,1017.4
2017-01-01T00:40:25.556Z,1017.39
2017-01-01T00:41:25.573Z,1017.36
2017-01-01T00:42:25.590Z,1017.35
2017-01-01T00:43:25.607Z,1017.3
2017-01-01T00:44:25.623Z,1017.32
2017-01-01T00:45:25.640Z,1017.28
2017-01-01T00:46:25.657Z,1017.29
2017-01-01T00:47:25.673Z,1017.28
2017-01-01T00:48:25.691Z,1017.26
2017-01-01T00:49:25.708Z,1017.22
2017-01-01T00:50:25.725Z,1017.26
2017-01-01T00:51:25.741Z,1017.25
2017-01-01T00:52:25.758Z,1017.21
2017-01-01T00:54:25.794Z,1017.19
2017-01-01T00:55:25.809Z,1017.21
2017-01-01T00:56:25.825Z,1017.15
2017-01-01T00:57:25.843Z,1017.15
2017-01-01T00:58:25.859Z,1017.15
2017-01-01T00:59:25.876Z,1017.16
2017-01-01T01:00:25.893Z,1017.16
2017-01-01T01:01:25.910Z,1017.18
2017-01-01T01:02:25.926Z,1017.18
2017-01-01T01:03:25.943Z,1017.13
2017-01-01T01:04:25.960Z,1017.1
2017-01-01T01:05:25.977Z,1017.09
2017-01-01T01:06:25.994Z,1017.07
2017-01-01T01:07:26.010Z,1017.07
2017-01-01T01:08:26.027Z,1017.1
2017-01-01T01:10:26.060Z,1017.06
2017-01-01T01:11:26.078Z,1017.07
2017-01-01T01:12:26.094Z,1017.05
2017-01-01T01:13:26.111Z,1017.07
2017-01-01T01:14:26.128Z,1017.01
2017-01-01T01:15:26.145Z,1017.03
2017-01-01T01:16:26.162Z,1017.05
2017-01-01T01:17:26.178Z,1017.09
2017-01-01T01:18:26.194Z,1017.06
2017-01-01T01:19:26.211Z,1017.05
2017-01-01T01:20:26.228Z,1017.05
2017-01-01T01:21:26.245Z,1017.03
2017-01-01T01:22:26.262Z,1017.04
2017-01-01T01:23:26.279Z,1017.01
2017-01-01T01:24:26.295Z,1017.06
2017-01-01T01:26:26.329Z,1017.03
2017-01-01T01:27:26.346Z,1017.04
2017-01-01T01:28:26.362Z,1017.02
2017-01-01T01:29:26.379Z,1016.98
2017-01-01T01:30:26.396Z,1016.96
2017-01-01T01:31:26.412Z,1016.99
2017-01-01T01:32:26.429Z,1016.96
2017-01-01T01:33:26.446Z,1016.94
2017-01-01T01:34:26.463Z,1017.02
2017-01-01T01:35:26.479Z,1016.99
2017-01-01T01:36:26.496Z,1016.98
2017-01-01T01:37:26.513Z,1016.94
2017-01-01T01:38:26.530Z,1016.94
2017-01-01T01:39:26.547Z,1016.9
2017-01-01T01:41:26.581Z,1016.98
2017-01-01T01:42:26.597Z,1016.92
2017-01-01T01:43:26.614Z,1016.95
2017-01-01T01:44:26.631Z,1016.91
2017-01-01T01:45:26.648Z,1016.89
2017-01-01T01:46:26.664Z,1016.89
2017-01-01T01:47:26.681Z,1016.88
2017-01-01T01:48:26.698Z,1016.82
2017-01-01T01:49:26.714Z,1016.83
2017-01-01T01:50:26.731Z,1016.81
2017-01-01T01:51:26.748Z,1016.81
2017-01-01T01:52:26.765Z,1016.76
2017-01-01T01:53:26.780Z,1016.7
2017-01-01T01:54:26.801Z,1016.74
2017-01-01T01:55:26.815Z,1016.77
2017-01-01T01:56:26.832Z,1016.73
2017-01-01T01:57:26.848Z,1016.74
2017-01-01T01:58:26.865Z,1016.65
2017-01-01T01:59:26.882Z,1016.67
2017-01-01T02:00:26.898Z,1016.64
2017-01-01T02:01:26.914Z,1016.59
2017-01-01T02:02:26.932Z,1016.56
2017-01-01T02:03:26.949Z,1016.58
2017-01-01T02:04:26.965Z,1016.58
2017-01-01T02:05:26.982Z,1016.52
2017-01-01T02:06:26.999Z,1016.51
2017-01-01T02:07:27.015Z,1016.5
2017-01-01T02:08:27.032Z,1016.53
2017-01-01T02:09:27.049Z,1016.51
2017-01-01T02:10:27.066Z,1016.42
2017-01-01T02:11:27.082Z,1016.47
2017-01-01T02:13:27.115Z,1016.38
2017-01-01T02:14:27.133Z,1016.38
2017-01-01T02:15:27.149Z,1016.39
2017-01-01T02:16:27.166Z,1016.35
2017-01-01T02:17:27.183Z,1016.35
2017-01-01T02:18:27.200Z,1016.36
2017-01-01T02:19:27.215Z,1016.38
2017-01-01T02:20:27.233Z,1016.37
2017-01-01T02:21:27.250Z,1016.3
2017-01-01T02:22:27.266Z,1016.39
2017-01-01T02:23:27.283Z,1016.3
2017-01-01T02:24:27.300Z,1016.32
2017-01-01T02:25:27.317Z,1016.31
2017-01-01T02:26:27.333Z,1016.29
2017-01-01T02:27:27.350Z,1016.24
2017-01-01T02:29:27.384Z,1016.19
2017-01-01T02:30:27.400Z,1016.09
2017-01-01T02:31:27.416Z,1016.13
2017-01-01T02:32:27.434Z,1016.11
2017-01-01T02:33:27.450Z,1016.07
2017-01-01T02:34:27.467Z,1016.13
2017-01-01T02:35:27.483Z,1016.05
2017-01-01T02:36:27.501Z,1016.06
2017-01-01T02:37:27.517Z,1016.08
2017-01-01T02:38:27.533Z,1016.09
2017-01-01T02:39:27.550Z,1016.04
2017-01-01T02:40:27.568Z,1016.04
2017-01-01T02:41:27.583Z,1016.07
2017-01-01T02:42:27.600Z,1016.01
2017-01-01T02:43:27.617Z,1016.04
2017-01-01T02:45:27.650Z,1016.09
2017-01-01T02:46:27.668Z,1016.03
2017-01-01T02:47:27.685Z,1016.03
2017-01-01T02:48:27.700Z,1016.01
2017-01-01T02:49:27.719Z,1015.99
2017-01-01T02:50:27.735Z,1015.99
2017-01-01T02:51:27.752Z,1015.97
2017-01-01T02:52:27.768Z,1015.93
2017-01-01T02:53:27.785Z,1015.91
2017-01-01T02:54:27.802Z,1015.92
2017-01-01T02:55:27.817Z,1015.89
2017-01-01T02:56:27.836Z,1015.88
2017-01-01T02:57:27.852Z,1015.85
2017-01-01T02:58:27.869Z,1015.86
2017-01-01T02:59:27.885Z,1015.88
2017-01-01T03:01:27.919Z,1015.85
2017-01-01T03:02:27.936Z,1015.81
2017-01-01T03:03:27.952Z,1015.81
2017-01-01T03:04:27.969Z,1015.82
2017-01-01T03:05:27.986Z,1015.79
2017-01-01T03:06:28.002Z,1015.76
2017-01-01T03:07:28.019Z,1015.77
2017-01-01T03:08:28.036Z,1015.72
2017-01-01T03:09:28.053Z,1015.7
2017-01-01T03:10:28.069Z,1015.69
2017-01-01T03:11:28.086Z,1015.63
2017-01-01T03:12:28.103Z,1015.63
2017-01-01T03:13:28.120Z,1015.6
2017-01-01T03:14:28.137Z,1015.67
2017-01-01T03:16:28.172Z,1015.59
2017-01-01T03:17:28.187Z,1015.56
2017-01-01T03:18:28.204Z,1015.64
2017-01-01T03:19:28.221Z,1015.58
2017-01-01T03:20:28.240Z,1015.57
2017-01-01T03:21:28.255Z,1015.54
2017-01-01T03:22:28.271Z,1015.56
2017-01-01T03:23:28.288Z,1015.6
2017-01-01T03:24:28.305Z,1015.55
2017-01-01T03:25:28.322Z,1015.56
2017-01-01T03:26:28.339Z,1015.5
2017-01-01T03:27:28.355Z,1015.49
2017-01-01T03:28:28.372Z,1015.49
2017-01-01T03:29:28.389Z,1015.48
2017-01-01T03:30:28.405Z,1015.47
2017-01-01T03:31:28.423Z,1015.43
2017-01-01T03:32:28.438Z,1015.45
2017-01-01T03:33:28.456Z,1015.4
2017-01-01T03:34:28.473Z,1015.42
2017-01-01T03:35:28.489Z,1015.41
2017-01-01T03:36:28.506Z,1015.37
2017-01-01T03:37:28.522Z,1015.4
2017-01-01T03:38:28.540Z,1015.41
2017-01-01T03:39:28.555Z,1015.31
2017-01-01T03:40:28.572Z,1015.27
2017-01-01T03:41:28.590Z,1015.32
2017-01-01T03:42:28.607Z,1015.31
2017-01-01T03:43:28.624Z,1015.28
2017-01-01T03:44:28.639Z,1015.32
2017-01-01T03:45:28.657Z,1015.3
2017-01-01T03:46:28.672Z,1015.28
2017-01-01T03:48:28.706Z,1015.29
2017-01-01T03:49:28.724Z,1015.28
2017-01-01T03:50:28.740Z,1015.22
2017-01-01T03:51:28.757Z,1015.31
2017-01-01T03:52:28.775Z,1015.31
2017-01-01T03:53:28.790Z,1015.28
2017-01-01T03:54:28.808Z,1015.19
2017-01-01T03:55:28.824Z,1015.21
2017-01-01T03:56:28.841Z,1015.23
2017-01-01T03:57:28.857Z,1015.22
2017-01-01T03:58:28.875Z,1015.19
2017-01-01T03:59:28.891Z,1015.16
2017-01-01T04:00:28.908Z,1015.14
2017-01-01T04:01:28.924Z,1015.1
2017-01-01T04:02:28.941Z,1015.12
2017-01-01T04:04:28.975Z,1015.09
2017-01-01T04:05:28.991Z,1015.07
2017-01-01T04:06:29.008Z,1015.04
2017-01-01T04:07:29.025Z,1015.07
2017-01-01T04:08:29.041Z,1015.03
2017-01-01T04:09:29.058Z,1015.03
2017-01-01T04:10:29.075Z,1014.97
2017-01-01T04:11:29.092Z,1015
2017-01-01T04:12:29.108Z,1014.99
2017-01-01T04:13:29.125Z,1014.89
2017-01-01T04:14:29.142Z,1014.88
2017-01-01T04:15:29.159Z,1014.87
2017-01-01T04:16:29.175Z,1014.87
2017-01-01T04:17:29.192Z,1014.83
2017-01-01T04:18:29.209Z,1014.84
2017-01-01T04:20:29.242Z,1014.73
2017-01-01T04:21:29.259Z,1014.75
2017-01-01T04:22:29.277Z,1014.74
2017-01-01T04:23:29.293Z,1014.74
2017-01-01T04:24:29.312Z,1014.76
2017-01-01T04:25:29.327Z,1014.74
2017-01-01T04:26:29.344Z,1014.69
2017-01-01T04:27:29.360Z,1014.71
2017-01-01T04:28:29.377Z,1014.71
2017-01-01T04:29:29.394Z,1014.72
2017-01-01T04:30:29.410Z,1014.69
2017-01-01T04:31:29.427Z,1014.7
2017-01-01T04:32:29.444Z,1014.65
2017-01-01T04:33:29.461Z,1014.68
2017-01-01T04:34:29.477Z,1014.7
2017-01-01T04:36:29.511Z,1014.71
2017-01-01T04:37:29.529Z,1014.67
2017-01-01T04:38:29.546Z,1014.7
2017-01-01T04:39:29.562Z,1014.68
2017-01-01T04:40:29.579Z,1014.75
2017-01-01T04:41:29.595Z,1014.71
2017-01-01T04:42:29.613Z,1014.7
2017-01-01T04:43:29.630Z,1014.72
2017-01-01T04:44:29.647Z,1014.72
2017-01-01T04:45:29.664Z,1014.67
2017-01-01T04:46:29.683Z,1014.7
2017-01-01T04:47:29.698Z,1014.72
2017-01-01T04:48:29.715Z,1014.64
2017-01-01T04:49:29.733Z,1014.65
2017-01-01T04:51:29.767Z,1014.62
2017-01-01T04:52:29.783Z,1014.55
2017-01-01T04:53:29.800Z,1014.58
2017-01-01T04:54:29.818Z,1014.51
2017-01-01T04:55:29.835Z,1014.55
2017-01-01T04:56:29.851Z,1014.54
2017-01-01T04:57:29.869Z,1014.51
2017-01-01T04:58:29.886Z,1014.51
2017-01-01T04:59:29.903Z,1014.5
2017-01-01T05:00:29.919Z,1014.46
2017-01-01T05:01:29.937Z,1014.44
2017-01-01T05:02:29.954Z,1014.45
2017-01-01T05:03:29.970Z,1014.47
2017-01-01T05:04:29.988Z,1014.39
2017-01-01T05:05:30.005Z,1014.39
2017-01-01T05:06:30.022Z,1014.39
2017-01-01T05:07:30.038Z,1014.38
2017-01-01T05:08:30.055Z,1014.34
2017-01-01T05:09:30.073Z,1014.32
2017-01-01T05:10:30.089Z,1014.31
2017-01-01T05:11:30.106Z,1014.33
2017-01-01T05:12:30.123Z,1014.26
2017-01-01T05:13:30.141Z,1014.32
2017-01-01T05:14:30.156Z,1014.32
2017-01-01T05:15:30.174Z,1014.3
2017-01-01T05:16:30.191Z,1014.38
2017-01-01T05:17:30.208Z,1014.36
2017-01-01T05:18:30.224Z,1014.36
2017-01-01T05:19:30.242Z,1014.34
2017-01-01T05:20:30.259Z,1014.36
2017-01-01T05:21:30.275Z,1014.38
2017-01-01T05:23:30.310Z,1014.34
2017-01-01T05:24:30.326Z,1014.33
2017-01-01T05:25:30.343Z,1014.26
2017-01-01T05:26:30.360Z,1014.29
2017-01-01T05:27:30.377Z,1014.3
2017-01-01T05:28:30.395Z,1014.38
2017-01-01T05:29:30.411Z,1014.35
2017-01-01T05:30:30.428Z,1014.33
2017-01-01T05:31:30.445Z,1014.36
2017-01-01T05:32:30.461Z,1014.36
2017-01-01T05:33:30.478Z,1014.34
2017-01-01T05:34:30.495Z,1014.33
2017-01-01T05:35:30.512Z,1014.35
2017-01-01T05:36:30.530Z,1014.34
2017-01-01T05:37:30.546Z,1014.34
2017-01-01T05:39:30.580Z,1014.28
2017-01-01T05:40:30.596Z,1014.29
2017-01-01T05:41:30.613Z,1014.29
2017-01-01T05:42:30.630Z,1014.29
2017-01-01T05:43:30.647Z,1014.28
2017-01-01T05:44:30.664Z,1014.3
2017-01-01T05:45:30.683Z,1014.26
2017-01-01T05:46:30.698Z,1014.22
2017-01-01T05:47:30.714Z,1014.24
2017-01-01T05:48:30.731Z,1014.16
2017-01-01T05:49:30.748Z,1014.18
2017-01-01T05:50:30.766Z,1014.21
2017-01-01T05:51:30.781Z,1014.2
2017-01-01T05:52:30.799Z,1014.14
2017-01-01T05:53:30.816Z,1014.13
2017-01-01T05:55:30.849Z,1014.14
2017-01-01T05:56:30.866Z,1014.13
2017-01-01T05:57:30.883Z,1014.11
2017-01-01T05:58:30.901Z,1014.14
2017-01-01T05:59:30.916Z,1014.15
2017-01-01T06:00:30.934Z,1014.14
2017-01-01T06:01:30.951Z,1014.11
2017-01-01T06:02:30.967Z,1014.12
2017-01-01T06:03:30.983Z,1014.06
2017-01-01T06:04:31.001Z,1014.1
2017-01-01T06:05:31.017Z,1014
2017-01-01T06:06:31.034Z,1013.97
2017-01-01T06:07:31.051Z,1013.99
2017-01-01T06:08:31.068Z,1013.95
2017-01-01T06:09:31.084Z,1013.94
2017-01-01T06:11:31.118Z,1013.88
2017-01-01T06:12:31.139Z,1013.92
2017-01-01T06:13:31.151Z,1013.9
2017-01-01T06:14:31.168Z,1013.89
2017-01-01T06:15:31.185Z,1013.89
2017-01-01T06:16:31.201Z,1013.91
2017-01-01T06:17:31.218Z,1013.85
2017-01-01T06:18:31.235Z,1013.83
2017-01-01T06:19:31.252Z,1013.78
2017-01-01T06:20:31.267Z,1013.74
2017-01-01T06:21:31.284Z,1013.72
2017-01-01T06:22:31.301Z,1013.73
2017-01-01T06:23:31.318Z,1013.75
2017-01-01T06:24:31.335Z,1013.75
2017-01-01T06:26:31.368Z,1013.68
2017-01-01T06:27:31.385Z,1013.64
2017-01-01T06:28:31.401Z,1013.67
2017-01-01T06:29:31.422Z,1013.7
2017-01-01T06:30:31.436Z,1013.69
2017-01-01T06:31:31.451Z,1013.67
2017-01-01T06:32:31.468Z,1013.62
2017-01-01T06:33:31.484Z,1013.67
2017-01-01T06:34:31.500Z,1013.7
2017-01-01T06:35:31.517Z,1013.64
2017-01-01T06:36:31.534Z,1013.62
2017-01-01T06:37:31.551Z,1013.62
2017-01-01T06:38:31.867Z,1013.57
2017-01-01T06:39:31.583Z,1013.65
2017-01-01T06:40:31.600Z,1013.62
2017-01-01T06:41:31.617Z,1013.61
2017-01-01T06:42:31.632Z,1013.58
2017-01-01T06:43:31.649Z,1013.59
2017-01-01T06:44:31.665Z,1013.58
2017-01-01T06:45:31.681Z,1013.56
2017-01-01T06:46:31.698Z,1013.59
2017-01-01T06:47:31.715Z,1013.53
2017-01-01T06:48:31.732Z,1013.5
2017-01-01T06:49:31.747Z,1013.45
2017-01-01T06:50:31.764Z,1013.5
2017-01-01T06:51:31.781Z,1013.41
2017-01-01T06:52:31.797Z,1013.46
2017-01-01T06:53:31.813Z,1013.51
2017-01-01T06:54:31.829Z,1013.51
2017-01-01T06:55:31.846Z,1013.52
2017-01-01T06:56:31.862Z,1013.54
2017-01-01T06:58:31.895Z,1013.46
2017-01-01T06:59:31.911Z,1013.4
2017-01-01T07:00:31.927Z,1013.4
2017-01-01T07:01:31.943Z,1013.39
2017-01-01T07:02:31.960Z,1013.35
2017-01-01T07:03:31.977Z,1013.31
2017-01-01T07:04:31.993Z,1013.38
2017-01-01T07:05:32.009Z,1013.33
2017-01-01T07:06:32.025Z,1013.38
2017-01-01T07:07:32.041Z,1013.36
2017-01-01T07:08:32.057Z,1013.3
2017-01-01T07:09:32.073Z,1013.29
2017-01-01T07:10:32.090Z,1013.39
2017-01-01T07:11:32.105Z,1013.38
2017-01-01T07:12:32.122Z,1013.35
2017-01-01T07:14:32.155Z,1013.29
2017-01-01T07:15:32.170Z,1013.27
2017-01-01T07:16:32.187Z,1013.27
2017-01-01T07:17:32.203Z,1013.36
2017-01-01T07:18:32.220Z,1013.35
2017-01-01T07:19:32.234Z,1013.41
2017-01-01T07:20:32.251Z,1013.33
2017-01-01T07:21:32.268Z,1013.34
2017-01-01T07:22:32.283Z,1013.38
2017-01-01T07:23:32.299Z,1013.43
2017-01-01T07:24:32.317Z,1013.46
2017-01-01T07:25:32.332Z,1013.37
2017-01-01T07:26:32.347Z,1013.44
2017-01-01T07:27:32.363Z,1013.44
2017-01-01T07:28:32.380Z,1013.43
2017-01-01T07:30:32.411Z,1013.39
2017-01-01T07:31:32.427Z,1013.4
2017-01-01T07:32:32.444Z,1013.4
2017-01-01T07:33:32.459Z,1013.4
2017-01-01T07:34:32.475Z,1013.34
2017-01-01T07:35:32.491Z,1013.36
2017-01-01T07:36:32.508Z,1013.35
2017-01-01T07:37:32.523Z,1013.37
2017-01-01T07:38:32.539Z,1013.35
2017-01-01T07:39:32.556Z,1013.33
2017-01-01T07:40:32.571Z,1013.37
2017-01-01T07:41:32.587Z,1013.37
2017-01-01T07:42:32.604Z,1013.35
2017-01-01T07:43:32.620Z,1013.29
2017-01-01T07:44:32.635Z,1013.33
2017-01-01T07:46:32.667Z,1013.27
2017-01-01T07:47:32.684Z,1013.31
2017-01-01T07:48:32.709Z,1013.27
2017-01-01T07:49:32.715Z,1013.26
2017-01-01T07:50:32.732Z,1013.25
2017-01-01T07:51:32.748Z,1013.26
2017-01-01T07:52:32.764Z,1013.23
2017-01-01T07:53:32.780Z,1013.2
2017-01-01T07:54:32.799Z,1013.16
2017-01-01T07:55:32.812Z,1013.2
2017-01-01T07:56:32.828Z,1013.19
2017-01-01T07:57:32.845Z,1013.23
2017-01-01T07:58:32.861Z,1013.23
2017-01-01T07:59:32.877Z,1013.23
2017-01-01T08:01:32.922Z,1013.26
2017-01-01T08:02:32.926Z,1013.28
2017-01-01T08:03:32.942Z,1013.27
2017-01-01T08:04:32.959Z,1013.31
2017-01-01T08:05:32.975Z,1013.29
2017-01-01T08:06:32.991Z,1013.32
2017-01-01T08:07:33.007Z,1013.31
2017-01-01T08:08:33.024Z,1013.34
2017-01-01T08:09:33.040Z,1013.32
2017-01-01T08:10:33.055Z,1013.35
2017-01-01T08:11:33.072Z,1013.36
2017-01-01T08:12:33.088Z,1013.34
2017-01-01T08:13:33.103Z,1013.34
2017-01-01T08:14:33.119Z,1013.35
2017-01-01T08:15:33.135Z,1013.38
2017-01-01T08:16:33.151Z,1013.34
2017-01-01T08:17:33.166Z,1013.36
2017-01-01T08:18:33.182Z,1013.38
2017-01-01T08:19:33.199Z,1013.35
2017-01-01T08:20:33.213Z,1013.33
2017-01-01T08:21:33.230Z,1013.35
2017-01-01T08:22:33.246Z,1013.39
2017-01-01T08:23:33.262Z,1013.31
2017-01-01T08:24:33.278Z,1013.32
2017-01-01T08:25:33.294Z,1013.3
2017-01-01T08:26:33.310Z,1013.29
2017-01-01T08:27:33.326Z,1013.28
2017-01-01T08:28:33.341Z,1013.3
2017-01-01T08:29:33.358Z,1013.3
2017-01-01T08:30:33.374Z,1013.3
2017-01-01T08:31:33.389Z,1013.28
2017-01-01T08:33:33.422Z,1013.31
2017-01-01T08:34:33.439Z,1013.29
2017-01-01T08:35:33.454Z,1013.29
2017-01-01T08:36:33.471Z,1013.29
2017-01-01T08:37:33.487Z,1013.32
2017-01-01T08:38:33.503Z,1013.35
2017-01-01T08:39:33.518Z,1013.28
2017-01-01T08:40:33.535Z,1013.29
2017-01-01T08:41:33.552Z,1013.29
2017-01-01T08:42:33.567Z,1013.3
2017-01-01T08:43:33.584Z,1013.32
2017-01-01T08:44:33.600Z,1013.31
2017-01-01T08:45:33.617Z,1013.25
2017-01-01T08:46:33.633Z,1013.24
2017-01-01T08:47:33.649Z,1013.24
2017-01-01T08:49:33.683Z,1013.27
2017-01-01T08:50:33.698Z,1013.23
2017-01-01T08:51:33.715Z,1013.19
2017-01-01T08:52:33.732Z,1013.25
2017-01-01T08:53:33.748Z,1013.2
2017-01-01T08:54:33.764Z,1013.23
2017-01-01T08:55:33.781Z,1013.19
2017-01-01T08:56:33.798Z,1013.2
2017-01-01T08:57:33.813Z,1013.24
2017-01-01T08:58:33.830Z,1013.24
2017-01-01T08:59:33.847Z,1013.19
2017-01-01T09:00:33.864Z,1013.2
2017-01-01T09:01:33.880Z,1013.16
2017-01-01T09:02:33.896Z,1013.17
2017-01-01T09:03:33.914Z,1013.22
2017-01-01T09:05:33.945Z,1013.15
2017-01-01T09:06:33.964Z,1013.07
2017-01-01T09:07:33.981Z,1013.08
2017-01-01T09:08:33.995Z,1013.11
2017-01-01T09:09:34.012Z,1013.13
2017-01-01T09:10:34.029Z,1013.12
2017-01-01T09:11:34.046Z,1013.15
2017-01-01T09:12:34.062Z,1013.11
2017-01-01T09:13:34.079Z,1013.07
2017-01-01T09:14:34.095Z,1013.09
2017-01-01T09:15:34.111Z,1013.14
2017-01-01T09:16:34.128Z,1013.14
2017-01-01T09:17:34.145Z,1013.14
2017-01-01T09:18:34.162Z,1013.17
2017-01-01T09:19:34.179Z,1013.17
2017-01-01T09:21:34.212Z,1013.12
2017-01-01T09:22:34.229Z,1013.11
2017-01-01T09:23:34.245Z,1013.1
2017-01-01T09:24:34.262Z,1013.08
2017-01-01T09:25:34.280Z,1013.06
2017-01-01T09:26:34.296Z,1013.05
2017-01-01T09:27:34.313Z,1012.99
2017-01-01T09:28:34.330Z,1012.97
2017-01-01T09:29:34.347Z,1012.97
2017-01-01T09:30:34.363Z,1012.98
2017-01-01T09:31:34.380Z,1012.94
2017-01-01T09:32:34.398Z,1012.93
2017-01-01T09:33:34.415Z,1012.91
2017-01-01T09:34:34.432Z,1012.89
2017-01-01T09:36:34.466Z,1012.81
2017-01-01T09:37:34.483Z,1012.8
2017-01-01T09:38:34.500Z,1012.74
2017-01-01T09:39:34.517Z,1012.75
2017-01-01T09:40:34.535Z,1012.73
2017-01-01T09:41:34.551Z,1012.71
2017-01-01T09:42:34.568Z,1012.74
2017-01-01T09:43:34.586Z,1012.75
2017-01-01T09:44:34.602Z,1012.75
2017-01-01T09:45:34.619Z,1012.76
2017-01-01T09:46:34.637Z,1012.72
2017-01-01T09:47:34.654Z,1012.7
2017-01-01T09:48:34.670Z,1012.68
2017-01-01T09:49:34.687Z,1012.66
2017-01-01T09:50:34.704Z,1012.64
2017-01-01T09:51:34.722Z,1012.6
2017-01-01T09:52:34.738Z,1012.58
2017-01-01T09:53:34.755Z,1012.53
2017-01-01T09:54:34.772Z,1012.51
2017-01-01T09:55:34.789Z,1012.53
2017-01-01T09:56:34.806Z,1012.48
2017-01-01T09:57:34.823Z,1012.45
2017-01-01T09:58:34.840Z,1012.39
2017-01-01T09:59:34.857Z,1012.36
2017-01-01T10:00:34.874Z,1012.35
2017-01-01T10:01:34.891Z,1012.34
2017-01-01T10:02:34.908Z,1012.32
2017-01-01T10:03:34.925Z,1012.26
2017-01-01T10:04:34.942Z,1012.3
2017-01-01T10:05:34.959Z,1012.33
2017-01-01T10:06:34.976Z,1012.41
2017-01-01T10:08:35.011Z,1012.33
2017-01-01T10:09:35.028Z,1012.34
2017-01-01T10:10:35.045Z,1012.36
2017-01-01T10:11:35.062Z,1012.39
2017-01-01T10:12:35.080Z,1012.4
2017-01-01T10:13:35.097Z,1012.34
2017-01-01T10:14:35.114Z,1012.36
2017-01-01T10:15:35.131Z,1012.3
2017-01-01T10:16:35.149Z,1012.26
2017-01-01T10:17:35.166Z,1012.28
2017-01-01T10:18:35.183Z,1012.25
2017-01-01T10:19:35.201Z,1012.25
2017-01-01T10:20:35.218Z,1012.3
2017-01-01T10:21:35.235Z,1012.26
2017-01-01T10:22:35.253Z,1012.22
2017-01-01T10:24:35.288Z,1012.24
2017-01-01T10:25:35.305Z,1012.26
2017-01-01T10:26:35.322Z,1012.19
2017-01-01T10:27:35.340Z,1012.21
2017-01-01T10:28:35.356Z,1012.16
2017-01-01T10:29:35.374Z,1012.18
2017-01-01T10:30:35.392Z,1012.15
2017-01-01T10:31:35.410Z,1012.15
2017-01-01T10:32:35.427Z,1012.15
2017-01-01T10:33:35.444Z,1012.14
2017-01-01T10:34:35.463Z,1012.16
2017-01-01T10:35:35.480Z,1012.11
2017-01-01T10:36:35.497Z,1012.1
2017-01-01T10:37:35.515Z,1012.09
2017-01-01T10:38:35.533Z,1012.08
2017-01-01T10:40:35.568Z,1012.11
2017-01-01T10:41:35.586Z,1012.08
2017-01-01T10:42:35.604Z,1012.09
2017-01-01T10:43:35.621Z,1012.08
2017-01-01T10:44:35.639Z,1012.06
2017-01-01T10:45:35.657Z,1012.02
2017-01-01T10:46:35.675Z,1011.98
2017-01-01T10:47:35.692Z,1012.01
2017-01-01T10:48:35.709Z,1012.01
2017-01-01T10:49:35.728Z,1011.95
2017-01-01T10:50:35.745Z,1011.88
2017-01-01T10:51:35.763Z,1011.89
2017-01-01T10:52:35.781Z,1011.82
2017-01-01T10:53:35.799Z,1011.86
2017-01-01T10:54:35.816Z,1011.83
2017-01-01T10:56:35.852Z,1011.75
2017-01-01T10:57:35.871Z,1011.74
2017-01-01T10:58:35.888Z,1011.69
2017-01-01T10:59:35.906Z,1011.71
2017-01-01T11:00:35.924Z,1011.7
2017-01-01T11:01:35.941Z,1011.65
2017-01-01T11:02:35.959Z,1011.66
2017-01-01T11:03:35.977Z,1011.61
2017-01-01T11:04:35.996Z,1011.6
2017-01-01T11:05:36.013Z,1011.56
2017-01-01T11:06:36.031Z,1011.61
2017-01-01T11:07:36.049Z,1011.6
2017-01-01T11:08:36.067Z,1011.61
2017-01-01T11:09:36.085Z,1011.62
2017-01-01T11:11:36.122Z,1011.66
2017-01-01T11:12:36.139Z,1011.59
2017-01-01T11:13:36.157Z,1011.58
2017-01-01T11:14:36.175Z,1011.53
2017-01-01T11:15:36.193Z,1011.55
2017-01-01T11:16:36.211Z,1011.58
2017-01-01T11:17:36.229Z,1011.52
2017-01-01T11:18:36.248Z,1011.54
2017-01-01T11:19:36.264Z,1011.51
2017-01-01T11:20:36.283Z,1011.53
2017-01-01T11:21:36.302Z,1011.51
2017-01-01T11:22:36.320Z,1011.54
2017-01-01T11:23:36.337Z,1011.51
2017-01-01T11:24:36.355Z,1011.54
2017-01-01T11:25:36.373Z,1011.52
2017-01-01T11:26:36.392Z,1011.57
2017-01-01T11:27:36.409Z,1011.49
2017-01-01T11:28:36.427Z,1011.47
2017-01-01T11:29:36.445Z,1011.48
2017-01-01T11:30:36.463Z,1011.45
2017-01-01T11:31:36.481Z,1011.42
2017-01-01T11:32:36.499Z,1011.39
2017-01-01T11:33:36.518Z,1011.36
2017-01-01T11:34:36.535Z,1011.28
2017-01-01T11:35:36.553Z,1011.31
2017-01-01T11:36:36.572Z,1011.29
2017-01-01T11:37:36.591Z,1011.26
2017-01-01T11:38:36.607Z,1011.27
2017-01-01T11:39:36.626Z,1011.23
2017-01-01T11:40:36.643Z,1011.19
2017-01-01T11:41:36.661Z,1011.18
2017-01-01T11:43:36.698Z,1011.19
2017-01-01T11:44:36.716Z,1011.13
2017-01-01T11:45:36.733Z,1011.17
2017-01-01T11:46:36.752Z,1011.23
2017-01-01T11:47:36.770Z,1011.3
2017-01-01T11:48:36.788Z,1011.34
2017-01-01T11:49:36.806Z,1011.3
2017-01-01T11:50:36.824Z,1011.26
2017-01-01T11:51:36.843Z,1011.27
2017-01-01T11:52:36.861Z,1011.23
2017-01-01T11:53:36.880Z,1011.25
2017-01-01T11:54:36.896Z,1011.28
2017-01-01T11:55:36.915Z,1011.25
2017-01-01T11:56:36.932Z,1011.23
2017-01-01T11:57:36.951Z,1011.24
2017-01-01T11:59:36.987Z,1011.26
2017-01-01T12:00:37.006Z,1011.23
2017-01-01T12:01:37.023Z,1011.26
2017-01-01T12:02:37.041Z,1011.23
2017-01-01T12:03:37.059Z,1011.22
2017-01-01T12:04:37.077Z,1011.23
2017-01-01T12:05:37.095Z,1011.18
2017-01-01T12:06:37.113Z,1011.19
2017-01-01T12:07:37.131Z,1011.19
2017-01-01T12:08:37.149Z,1011.17
2017-01-01T12:09:37.167Z,1011.13
2017-01-01T12:10:37.186Z,1011.16
2017-01-01T12:11:37.203Z,1011.12
2017-01-01T12:12:37.221Z,1011.11
2017-01-01T12:13:37.240Z,1011.08
2017-01-01T12:15:37.275Z,1011.02
2017-01-01T12:16:37.294Z,1010.98
2017-01-01T12:17:37.312Z,1011.05
2017-01-01T12:18:37.330Z,1011.07
2017-01-01T12:19:37.348Z,1011.05
2017-01-01T12:20:37.367Z,1011.05
2017-01-01T12:21:37.385Z,1011.02
2017-01-01T12:22:37.402Z,1011.02
2017-01-01T12:23:37.420Z,1011.01
2017-01-01T12:24:37.439Z,1011.08
2017-01-01T12:25:37.456Z,1011.01
2017-01-01T12:26:37.474Z,1011.07
2017-01-01T12:27:37.493Z,1011.09
2017-01-01T12:28:37.511Z,1011.04
2017-01-01T12:29:37.529Z,1011.01
2017-01-01T12:31:37.565Z,1011.01
2017-01-01T12:32:37.583Z,1010.94
2017-01-01T12:33:37.600Z,1010.9
2017-01-01T12:34:37.619Z,1010.87
2017-01-01T12:35:37.637Z,1010.83
2017-01-01T12:36:37.654Z,1010.86
2017-01-01T12:37:37.672Z,1010.82
2017-01-01T12:38:37.690Z,1010.76
2017-01-01T12:39:37.709Z,1010.78
2017-01-01T12:40:37.726Z,1010.77
2017-01-01T12:41:37.744Z,1010.81
2017-01-01T12:42:37.762Z,1010.78
2017-01-01T12:43:37.780Z,1010.8
2017-01-01T12:44:37.798Z,1010.73
2017-01-01T12:46:37.844Z,1010.76
2017-01-01T12:47:37.851Z,1010.75
2017-01-01T12:48:37.869Z,1010.72
2017-01-01T12:49:37.888Z,1010.76